createdAt,value
2022-08-12T00:01:11.062Z,99.60
2022-08-12T00:05:28.202Z,99.90
2022-08-12T00:09:44.135Z,99.90
2022-08-12T00:14:00.032Z,99.90
2022-08-12T00:18:15.970Z,99.90
2022-08-12T00:22:33.077Z,99.90
2022-08-12T00:26:49.494Z,99.90
2022-08-12T00:31:05.627Z,99.90
2022-08-12T00:35:24.377Z,99.90
2022-08-12T00:39:42.147Z,99.90
2022-08-12T00:43:42.963Z,99.90
2022-08-12T00:47:41.122Z,99.90
2022-08-12T00:51:59.073Z,99.90
2022-08-12T00:55:58.667Z,99.90
2022-08-12T01:00:11.443Z,99.90
2022-08-12T01:04:29.844Z,99.90
2022-08-12T01:08:48.044Z,99.90
2022-08-12T01:12:46.186Z,99.90
2022-08-12T01:16:43.870Z,99.90
2022-08-12T01:20:52.480Z,99.90
2022-08-12T01:25:11.863Z,99.90
2022-08-12T01:29:15.626Z,99.90
2022-08-12T01:33:21.911Z,99.90
2022-08-12T01:37:24.574Z,99.90
2022-08-12T01:41:26.073Z,99.90
2022-08-12T01:45:26.675Z,99.90
2022-08-12T01:49:48.678Z,99.90
2022-08-12T01:54:14.872Z,99.90
2022-08-12T01:58:32.013Z,99.90
2022-08-12T02:03:03.953Z,99.90
2022-08-12T02:07:37.845Z,99.90
2022-08-12T02:12:06.111Z,99.90
2022-08-12T02:16:46.732Z,99.90
2022-08-12T02:21:07.414Z,99.90
2022-08-12T02:25:13.562Z,99.90
2022-08-12T02:29:13.418Z,99.90
2022-08-12T02:33:12.136Z,99.90
2022-08-12T02:37:14.005Z,99.90
2022-08-12T02:41:17.134Z,99.90
2022-08-12T02:45:26.019Z,99.90
2022-08-12T02:49:35.065Z,99.90
2022-08-12T02:53:34.587Z,99.90
2022-08-12T02:57:32.954Z,99.90
2022-08-12T03:01:36.290Z,99.90
2022-08-12T03:05:52.483Z,99.90
2022-08-12T03:10:03.711Z,99.90
2022-08-12T03:14:03.875Z,99.90
2022-08-12T03:18:24.911Z,99.90
2022-08-12T03:22:27.097Z,99.90
2022-08-12T03:26:28.008Z,99.90
2022-08-12T03:30:32.720Z,99.90
2022-08-12T03:34:34.013Z,99.90
2022-08-12T03:38:37.366Z,99.90
2022-08-12T03:42:42.929Z,99.90
2022-08-12T03:47:04.057Z,99.90
2022-08-12T03:51:21.206Z,99.90
2022-08-12T03:55:36.530Z,99.90
2022-08-12T03:59:51.934Z,99.90
2022-08-12T04:03:53.343Z,99.90
2022-08-12T04:07:58.222Z,99.90
2022-08-12T04:12:14.422Z,99.90
2022-08-12T04:16:13.682Z,99.90
2022-08-12T04:20:14.432Z,99.90
2022-08-12T04:24:12.551Z,99.90
2022-08-12T04:28:13.539Z,99.90
2022-08-12T04:32:11.641Z,99.90
2022-08-12T04:36:09.516Z,99.90
2022-08-12T04:40:11.283Z,99.90
2022-08-12T04:44:10.416Z,99.90
2022-08-12T04:48:07.760Z,99.90
2022-08-12T04:52:05.937Z,99.90
2022-08-12T04:56:03.057Z,99.90
2022-08-12T05:00:00.154Z,99.90
2022-08-12T05:03:58.929Z,99.90
2022-08-12T05:07:55.976Z,99.90
2022-08-12T05:11:54.076Z,99.90
2022-08-12T05:16:05.070Z,99.90
2022-08-12T05:20:03.113Z,99.90
2022-08-12T05:24:01.584Z,99.90
2022-08-12T05:28:00.642Z,99.90
2022-08-12T05:31:58.198Z,99.90
2022-08-12T05:35:55.289Z,99.90
2022-08-12T05:39:52.409Z,99.90
2022-08-12T05:43:56.748Z,99.90
2022-08-12T05:47:54.339Z,99.90
2022-08-12T05:51:51.826Z,99.90
2022-08-12T05:55:52.873Z,99.90
2022-08-12T05:59:49.864Z,99.90
2022-08-12T06:03:47.032Z,99.90
2022-08-12T06:08:01.955Z,99.90
2022-08-12T06:12:05.417Z,99.90
2022-08-12T06:16:03.902Z,99.90
2022-08-12T06:20:26.831Z,99.90
2022-08-12T06:24:24.327Z,99.90
2022-08-12T06:28:22.730Z,99.90
2022-08-12T06:32:19.823Z,99.90
2022-08-12T06:36:30.091Z,99.90
2022-08-12T06:40:50.423Z,99.90
2022-08-12T06:44:47.463Z,99.90
2022-08-12T06:48:44.518Z,99.90
2022-08-12T06:52:43.679Z,99.90
2022-08-12T06:57:02.885Z,99.90
2022-08-12T07:01:00.260Z,99.90
2022-08-12T07:04:57.564Z,99.90
2022-08-12T07:08:54.543Z,99.90
2022-08-12T07:12:54.964Z,99.90
2022-08-12T07:16:56.833Z,99.90
2022-08-12T07:20:54.146Z,99.90
2022-08-12T07:25:11.272Z,99.90
2022-08-12T07:29:09.961Z,99.90
2022-08-12T07:33:09.749Z,99.90
2022-08-12T07:37:06.756Z,99.90
2022-08-12T07:41:14.511Z,99.90
2022-08-12T07:45:13.914Z,99.90
2022-08-12T07:49:19.705Z,99.90
2022-08-12T07:53:16.913Z,99.90
2022-08-12T07:57:15.597Z,99.90
2022-08-12T08:01:17.644Z,99.90
2022-08-12T08:05:15.591Z,99.90
2022-08-12T08:09:15.875Z,99.90
2022-08-12T08:13:13.755Z,99.90
2022-08-12T08:17:11.610Z,98.70
2022-08-12T08:21:11.212Z,98.10
2022-08-12T08:25:34.744Z,96.10
2022-08-12T08:29:26.165Z,95.20
2022-08-12T08:34:01.593Z,92.00
2022-08-12T08:37:46.304Z,87.90
2022-08-12T08:42:19.374Z,85.70
2022-08-12T08:46:17.046Z,83.90
2022-08-12T08:50:15.339Z,79.30
2022-08-12T08:54:13.310Z,79.20
2022-08-12T08:58:11.672Z,79.40
2022-08-12T09:02:09.250Z,78.20
2022-08-12T09:06:07.267Z,78.20
2022-08-12T09:10:09.174Z,78.00
2022-08-12T09:14:29.260Z,78.80
2022-08-12T09:18:33.374Z,80.20
2022-08-12T09:22:30.904Z,80.90
2022-08-12T09:26:33.806Z,81.00
2022-08-12T09:30:41.048Z,82.20
2022-08-12T09:34:42.550Z,82.40
2022-08-12T09:38:58.490Z,81.10
2022-08-12T09:43:18.675Z,82.00
2022-08-12T09:47:16.521Z,80.40
2022-08-12T09:51:21.659Z,75.70
2022-08-12T09:56:05.995Z,75.00
2022-08-12T10:00:17.240Z,73.90
2022-08-12T10:04:04.151Z,66.50
2022-08-12T10:08:04.974Z,64.50
2022-08-12T10:12:32.750Z,61.30
2022-08-12T10:16:38.623Z,58.50
2022-08-12T10:20:37.480Z,57.60
2022-08-12T10:24:34.613Z,57.70
2022-08-12T10:28:56.236Z,56.30
2022-08-12T10:33:00.239Z,56.80
2022-08-12T10:37:22.918Z,57.20
2022-08-12T10:41:57.347Z,55.60
2022-08-12T10:45:58.292Z,55.50
2022-08-12T10:50:05.641Z,58.00
2022-08-12T10:54:14.351Z,58.70
2022-08-12T10:58:14.422Z,57.50
2022-08-12T11:04:32.099Z,55.50
2022-08-12T11:07:09.657Z,54.60
2022-08-12T11:11:13.217Z,51.20
2022-08-12T11:15:18.620Z,49.50
2022-08-12T11:19:18.090Z,50.30
2022-08-12T11:23:25.405Z,49.70
2022-08-12T11:27:34.239Z,51.10
2022-08-12T11:31:56.287Z,53.00
2022-08-12T11:35:53.128Z,51.50
2022-08-12T11:44:36.350Z,52.80
2022-08-12T11:48:27.077Z,52.40
2022-08-12T11:52:55.523Z,48.40
2022-08-12T11:56:42.894Z,48.70
2022-08-12T12:05:06.972Z,49.20
2022-08-12T12:09:04.073Z,49.40
2022-08-12T12:13:05.173Z,49.70
2022-08-12T12:17:19.917Z,48.90
2022-08-12T12:21:30.019Z,49.50
2022-08-12T12:26:07.063Z,51.80
2022-08-12T12:30:18.138Z,50.30
2022-08-12T12:34:30.238Z,49.20
2022-08-12T12:38:28.102Z,48.60
2022-08-12T12:42:42.843Z,51.30
2022-08-12T12:46:42.095Z,53.20
2022-08-12T12:51:13.978Z,51.10
2022-08-12T12:55:36.009Z,50.80
2022-08-12T12:59:35.000Z,51.50
2022-08-12T13:03:54.244Z,51.00
2022-08-12T13:08:00.640Z,50.90
2022-08-12T13:12:01.082Z,51.40
2022-08-12T13:16:01.761Z,49.90
2022-08-12T13:20:06.614Z,52.10
2022-08-12T13:24:10.144Z,53.30
2022-08-12T13:28:09.630Z,53.20
2022-08-12T13:32:19.576Z,50.90
2022-08-12T13:36:24.270Z,49.10
2022-08-12T13:40:33.964Z,49.10
2022-08-12T13:44:31.354Z,49.70
2022-08-12T13:48:30.574Z,50.20
2022-08-12T13:52:27.593Z,59.10
2022-08-12T13:56:31.493Z,57.60
2022-08-12T14:00:38.981Z,57.10
2022-08-12T14:04:37.205Z,55.80
2022-08-12T14:08:34.795Z,55.40
2022-08-12T14:12:40.216Z,55.00
2022-08-12T14:16:52.073Z,54.90
2022-08-12T14:20:58.460Z,54.80
2022-08-12T14:24:58.379Z,52.60
2022-08-12T14:28:57.735Z,51.30
2022-08-12T14:33:03.242Z,51.30
2022-08-12T14:37:02.430Z,49.40
2022-08-12T14:41:07.497Z,47.50
2022-08-12T14:45:08.041Z,48.00
2022-08-12T14:49:27.511Z,46.90
2022-08-12T14:57:57.939Z,45.30
2022-08-12T15:01:55.557Z,46.20
2022-08-12T15:06:05.564Z,45.90
2022-08-12T15:10:04.332Z,45.40
2022-08-12T15:14:01.722Z,44.20
2022-08-12T15:18:06.965Z,45.60
2022-08-12T15:22:35.633Z,48.70
2022-08-12T15:26:28.310Z,51.40
2022-08-12T15:30:30.281Z,53.10
2022-08-12T15:34:30.889Z,51.30
2022-08-12T15:38:28.224Z,48.30
2022-08-12T15:42:26.485Z,46.40
2022-08-12T15:46:27.647Z,46.60
2022-08-12T15:50:29.657Z,46.80
2022-08-12T15:54:34.057Z,47.60
2022-08-12T15:58:33.724Z,49.20
2022-08-12T16:02:40.771Z,49.20
2022-08-12T16:07:05.625Z,49.70
2022-08-12T16:10:57.948Z,51.10
2022-08-12T16:14:57.497Z,52.60
2022-08-12T16:19:00.820Z,53.60
2022-08-12T16:23:26.322Z,54.00
2022-08-12T16:27:25.662Z,52.80
2022-08-12T16:31:24.097Z,51.60
2022-08-12T16:35:21.360Z,51.70
2022-08-12T16:39:27.818Z,51.40
2022-08-12T16:43:30.374Z,51.50
2022-08-12T16:47:58.214Z,51.40
2022-08-12T16:51:50.285Z,51.30
2022-08-12T16:55:50.739Z,53.70
2022-08-12T16:59:54.146Z,55.30
2022-08-12T17:04:09.085Z,57.00
2022-08-12T17:08:09.690Z,56.00
2022-08-12T17:12:07.998Z,57.10
2022-08-12T17:16:10.701Z,58.40
2022-08-12T17:20:34.674Z,58.80
2022-08-12T17:24:44.078Z,59.80
2022-08-12T17:28:53.776Z,62.70
2022-08-12T17:32:53.473Z,64.30
2022-08-12T17:36:51.650Z,65.80
2022-08-12T17:40:49.114Z,67.20
2022-08-12T17:44:49.119Z,68.50
2022-08-12T17:48:55.051Z,69.50
2022-08-12T17:53:00.468Z,70.20
2022-08-12T17:57:01.337Z,70.30
2022-08-12T18:01:02.270Z,70.50
2022-08-12T18:05:09.361Z,70.70
2022-08-12T18:09:08.574Z,70.70
2022-08-12T18:13:06.977Z,71.20
2022-08-12T18:17:08.253Z,71.90
2022-08-12T18:21:09.793Z,72.90
2022-08-12T18:25:18.661Z,73.40
2022-08-12T18:29:42.252Z,74.60
2022-08-12T18:33:45.670Z,75.40
2022-08-12T18:37:43.210Z,77.10
2022-08-12T18:41:43.386Z,77.90
2022-08-12T18:45:57.034Z,79.50
2022-08-12T18:49:57.380Z,80.40
2022-08-12T18:54:05.293Z,81.20
2022-08-12T18:58:10.107Z,82.70
2022-08-12T19:02:19.499Z,84.60
2022-08-12T19:06:19.876Z,85.50
2022-08-12T19:10:23.034Z,87.30
2022-08-12T19:14:32.814Z,88.10
2022-08-12T19:18:32.357Z,89.10
2022-08-12T19:22:35.277Z,89.30
2022-08-12T19:26:35.180Z,90.00
2022-08-12T19:30:54.499Z,90.40
2022-08-12T19:36:06.632Z,90.70
2022-08-12T19:39:23.143Z,90.70
2022-08-12T19:43:26.837Z,91.20
2022-08-12T19:47:46.068Z,91.90
2022-08-12T19:51:49.595Z,91.90
2022-08-12T19:55:52.856Z,91.90
2022-08-12T20:00:04.099Z,92.50
2022-08-12T20:04:03.275Z,93.10
2022-08-12T20:08:01.079Z,93.50
2022-08-12T20:12:11.962Z,93.90
2022-08-12T20:16:45.492Z,94.50
2022-08-12T20:20:30.569Z,94.60
2022-08-12T20:24:37.592Z,94.80
2022-08-12T20:28:34.860Z,95.40
2022-08-12T20:32:37.606Z,95.60
2022-08-12T20:36:45.395Z,95.70
2022-08-12T20:40:47.807Z,95.80
2022-08-12T20:44:45.336Z,96.40
2022-08-12T20:48:44.359Z,96.80
2022-08-12T20:52:45.306Z,97.00
2022-08-12T20:56:43.078Z,97.60
2022-08-12T21:00:43.623Z,98.00
2022-08-12T21:04:59.239Z,98.90
2022-08-12T21:08:59.228Z,99.30
2022-08-12T21:12:57.341Z,99.90
2022-08-12T21:16:55.184Z,99.90
2022-08-12T21:20:54.565Z,99.90
2022-08-12T21:24:53.090Z,99.90
2022-08-12T21:28:56.780Z,99.90
2022-08-12T21:32:56.571Z,99.90
2022-08-12T21:36:53.953Z,99.90
2022-08-12T21:40:53.851Z,99.90
2022-08-12T21:45:46.962Z,99.90
2022-08-12T21:49:16.460Z,99.90
2022-08-12T21:54:07.889Z,99.90
2022-08-12T21:57:54.640Z,99.90
2022-08-12T22:01:59.586Z,99.90
2022-08-12T22:06:20.289Z,99.90
2022-08-12T22:10:28.541Z,99.90
2022-08-12T22:14:28.995Z,99.90
2022-08-12T22:18:27.473Z,99.90
2022-08-12T22:22:25.389Z,99.90
2022-08-12T22:26:37.593Z,99.90
2022-08-12T22:30:53.521Z,99.90
2022-08-12T22:35:10.445Z,99.90
2022-08-12T22:39:19.368Z,99.90
2022-08-12T22:43:36.382Z,99.90
2022-08-12T22:47:55.861Z,99.90
2022-08-12T22:52:00.256Z,99.90
2022-08-12T22:56:06.697Z,99.90
2022-08-12T23:00:09.063Z,99.90
2022-08-12T23:04:28.530Z,99.90
2022-08-12T23:08:31.864Z,99.90
2022-08-12T23:12:49.099Z,99.90
2022-08-12T23:16:47.249Z,99.90
2022-08-12T23:20:45.071Z,99.90
2022-08-12T23:24:53.669Z,99.90
2022-08-12T23:29:26.045Z,99.90
2022-08-12T23:34:00.682Z,99.90
2022-08-12T23:37:47.577Z,99.90
2022-08-12T23:41:56.307Z,99.90
2022-08-12T23:46:19.497Z,99.90
2022-08-12T23:50:17.174Z,99.90
2022-08-12T23:54:38.773Z,99.90
2022-08-12T23:58:37.022Z,99.90
